Baltrum Airport

EDWZ · 下萨克森, 德国

罗盘
风向 的 风向 180° Baltrum Airport 9/27
风: 3 kt, 1 beaufort


3 kt
改变
0 ft 1.000 2.000 3.000 4.000 5.000
未检测到零云
METAR EHGG 071725Z AUTO 18003KT 9999 NCD M01/M03 Q1039 NOSIG

METAR Baltrum Airport - EDWZ/BMR

Baltrum Airport是,德国中的小机场。 该机场有一条跑道: 9/27. 该领域的国际民航组织标志是EDWZ 它的国际航空运输协会代码是BMR.

这份报告是针对2023年2月7日 18:25, 当地时间在Groningen Airport Eelde进行的。

机场观察

风向为180°,速度为3 kt。

可见度为10 km 或者更多。

有未检测到零云。 没有观察到天花板。

温度为-1 °C,阵风为-5 °C。 露点为-3 °C,相对湿度为86%。 海平面上的气压为1039 hPa (QNH)。

白天

今天,太阳从08:05升起,在17:23降落。 这适用于Baltrum Airport,世界夏令时可能有所不同。 当地时间与世界标准时间之间的时差为+1 小时。 当前,没有夏令时有效。

公司介绍

我们没有关于这个机场的公司信息。

体会

到Vliegles.nl去找飞行课程,跳伞和其他飞行体验。 浏览页面,了解Baltrum Airport附近所有可用的活动。 你也可以使用搜索功能来寻找你所在地附近的特定飞行课程、跳伞或其他飞行体验。

跑道

Id 标题 侧风 逆风 侧风 %
9/27 093°-273° 3 kt 100 %

逆风成分最大的方向会被突出显示,并用于横风计算。 这并不一定意味着这个方向在使用。

乌云

- NCD 未检测到零云

温度 & 天气

温度 -1 °C
露点 -3 °C
相对湿度 86%
风寒 -5 °C
Kp-index 2 (0-9)

白天

日出
08:07 (13:32)
中午
12:47
日落
17:28

小工具

你想在你的网站上有一个关于Baltrum Airport的当前航空天气(METAR)的小部件吗?

显示HTML代码

我们和第三方通过cookies跟踪您在我们网站上的互联网行为。如果你继续,我们认为你同意我们的饼干政策